createdAt,value
2023-03-08T00:00:16.471Z,48.14
2023-03-08T00:03:19.251Z,47.81
2023-03-08T00:06:22.835Z,47.79
2023-03-08T00:09:27.198Z,48.29
2023-03-08T00:12:30.274Z,49.03
2023-03-08T00:15:33.123Z,48.28
2023-03-08T00:18:36.798Z,48.48
2023-03-08T00:21:39.925Z,48.67
2023-03-08T00:24:44.124Z,48.38
2023-03-08T00:27:46.917Z,48.62
2023-03-08T00:30:56.408Z,48.59
2023-03-08T00:33:59.563Z,48.85
2023-03-08T00:37:02.232Z,48.06
2023-03-08T00:40:08.051Z,48.33
2023-03-08T00:43:11.236Z,49.20
2023-03-08T00:46:14.869Z,49.17
2023-03-08T00:49:17.746Z,48.60
2023-03-08T00:52:20.678Z,48.79
2023-03-08T00:55:25.105Z,49.06
2023-03-08T00:58:31.358Z,49.38
2023-03-08T01:01:34.337Z,50.08
2023-03-08T01:04:37.040Z,49.75
2023-03-08T01:07:39.777Z,50.15
2023-03-08T01:10:48.389Z,50.25
2023-03-08T01:13:52.665Z,49.69
2023-03-08T01:16:55.458Z,49.98
2023-03-08T01:19:58.545Z,50.32
2023-03-08T01:23:02.055Z,50.28
2023-03-08T01:26:09.052Z,51.08
2023-03-08T01:29:11.920Z,51.24
2023-03-08T01:32:14.812Z,50.84
2023-03-08T01:35:17.913Z,51.99
2023-03-08T01:38:20.702Z,51.52
2023-03-08T01:41:27.622Z,52.75
2023-03-08T01:44:30.856Z,52.58
2023-03-08T01:47:36.058Z,52.82
2023-03-08T01:50:39.360Z,53.15
2023-03-08T01:53:43.574Z,53.16
2023-03-08T01:56:50.771Z,53.38
2023-03-08T01:59:57.177Z,53.51
2023-03-08T02:03:03.083Z,53.77
2023-03-08T02:06:06.284Z,53.68
2023-03-08T02:09:09.444Z,52.71
2023-03-08T02:12:15.371Z,53.61
2023-03-08T02:15:21.166Z,54.52
2023-03-08T02:18:24.132Z,54.65
2023-03-08T02:21:28.129Z,54.27
2023-03-08T02:24:32.491Z,53.81
2023-03-08T02:27:35.309Z,53.64
2023-03-08T02:30:39.271Z,53.60
2023-03-08T02:33:42.230Z,53.29
2023-03-08T02:36:45.234Z,53.33
2023-03-08T02:39:49.904Z,53.22
2023-03-08T02:42:53.569Z,53.08
2023-03-08T02:45:56.565Z,54.21
2023-03-08T02:48:59.302Z,53.89
2023-03-08T02:52:02.002Z,53.86
2023-03-08T02:55:07.413Z,53.26
2023-03-08T02:58:11.316Z,53.98
2023-03-08T03:01:14.588Z,53.42
2023-03-08T03:04:17.441Z,54.56
2023-03-08T03:07:20.471Z,53.67
2023-03-08T03:10:24.591Z,53.43
2023-03-08T03:13:27.425Z,53.39
2023-03-08T03:16:30.453Z,54.13
2023-03-08T03:19:33.549Z,53.01
2023-03-08T03:22:36.492Z,53.96
2023-03-08T03:25:40.687Z,53.39
2023-03-08T03:28:44.435Z,52.43
2023-03-08T03:31:48.591Z,52.36
2023-03-08T03:34:52.130Z,52.71
2023-03-08T03:37:54.964Z,51.83
2023-03-08T03:41:03.781Z,51.65
2023-03-08T03:44:06.882Z,52.07
2023-03-08T03:47:10.107Z,51.71
2023-03-08T03:50:13.104Z,51.35
2023-03-08T03:53:15.917Z,52.29
2023-03-08T03:56:22.639Z,52.34
2023-03-08T03:59:26.898Z,51.48
2023-03-08T04:02:30.133Z,52.57
2023-03-08T04:05:33.221Z,52.91
2023-03-08T04:08:42.192Z,51.84
2023-03-08T04:11:46.560Z,52.11
2023-03-08T04:14:49.584Z,52.86
2023-03-08T04:17:52.664Z,52.51
2023-03-08T04:20:55.435Z,52.58
2023-03-08T04:24:00.683Z,51.51
2023-03-08T04:27:05.249Z,52.13
2023-03-08T04:30:09.200Z,51.78
2023-03-08T04:33:12.086Z,52.39
2023-03-08T04:36:15.834Z,52.15
2023-03-08T04:39:18.784Z,52.58
2023-03-08T04:42:23.191Z,53.25
2023-03-08T04:45:25.955Z,53.08
2023-03-08T04:48:29.272Z,53.18
2023-03-08T04:51:31.943Z,53.56
2023-03-08T04:54:34.648Z,53.72
2023-03-08T04:57:38.728Z,54.18
2023-03-08T05:00:41.445Z,53.73
2023-03-08T05:03:44.663Z,53.21
2023-03-08T05:06:47.599Z,52.47
2023-03-08T05:09:50.514Z,53.31
2023-03-08T05:12:54.717Z,54.04
2023-03-08T05:15:57.677Z,53.80
2023-03-08T05:19:00.640Z,53.91
2023-03-08T05:22:03.381Z,53.88
2023-03-08T05:25:07.103Z,54.31
2023-03-08T05:28:15.845Z,54.68
2023-03-08T05:31:20.856Z,54.63
2023-03-08T05:34:23.646Z,54.38
2023-03-08T05:37:27.570Z,54.58
2023-03-08T05:40:30.889Z,55.00
2023-03-08T05:43:35.861Z,54.09
2023-03-08T05:46:39.189Z,54.10
2023-03-08T05:49:42.116Z,55.08
2023-03-08T05:52:45.383Z,52.97
2023-03-08T05:55:48.400Z,53.21
2023-03-08T05:58:53.442Z,52.52
2023-03-08T06:01:56.608Z,52.45
2023-03-08T06:04:59.616Z,52.36
2023-03-08T06:08:02.930Z,52.14
2023-03-08T06:11:06.322Z,53.26
2023-03-08T06:14:13.089Z,53.85
2023-03-08T06:17:16.221Z,54.63
2023-03-08T06:20:19.133Z,54.46
2023-03-08T06:23:22.045Z,54.57
2023-03-08T06:26:24.891Z,53.67
2023-03-08T06:29:29.079Z,53.55
2023-03-08T06:32:32.129Z,54.55
2023-03-08T06:35:35.116Z,53.53
2023-03-08T06:38:39.623Z,53.96
2023-03-08T06:41:42.366Z,54.25
2023-03-08T06:44:46.866Z,55.34
2023-03-08T06:47:49.972Z,55.59
2023-03-08T06:50:52.827Z,56.04
2023-03-08T06:53:55.669Z,56.85
2023-03-08T06:56:58.503Z,56.02
2023-03-08T07:00:04.448Z,56.04
2023-03-08T07:03:07.355Z,54.14
2023-03-08T07:06:11.392Z,55.13
2023-03-08T07:09:14.597Z,55.81
2023-03-08T07:12:17.556Z,54.45
2023-03-08T07:15:23.567Z,54.50
2023-03-08T07:18:26.827Z,54.80
2023-03-08T07:21:29.583Z,55.37
2023-03-08T07:24:32.404Z,56.35
2023-03-08T07:27:35.261Z,54.62
2023-03-08T07:30:39.550Z,55.00
2023-03-08T07:33:42.433Z,56.17
2023-03-08T07:36:45.322Z,56.01
2023-03-08T07:39:48.191Z,56.21
2023-03-08T07:42:50.938Z,56.53
2023-03-08T07:45:55.344Z,56.81
2023-03-08T07:48:58.176Z,57.21
2023-03-08T07:52:01.021Z,58.38
2023-03-08T07:55:03.767Z,59.01
2023-03-08T07:58:06.709Z,59.69
2023-03-08T08:01:12.909Z,59.60
2023-03-08T08:04:16.469Z,59.43
2023-03-08T08:07:19.526Z,59.76
2023-03-08T08:10:22.526Z,60.18
2023-03-08T08:13:25.302Z,58.79
2023-03-08T08:16:29.565Z,59.64
2023-03-08T08:19:32.773Z,59.99
2023-03-08T08:22:36.741Z,59.88
2023-03-08T08:25:40.592Z,60.43
2023-03-08T08:28:44.923Z,59.59
2023-03-08T08:31:49.221Z,59.89
2023-03-08T08:34:52.066Z,61.22
2023-03-08T08:37:54.893Z,63.66
2023-03-08T08:41:00.600Z,65.92
2023-03-08T08:44:03.726Z,67.60
2023-03-08T08:47:08.847Z,68.41
2023-03-08T08:50:14.119Z,69.41
2023-03-08T08:53:17.374Z,68.73
2023-03-08T08:56:27.864Z,71.34
2023-03-08T08:59:31.126Z,70.64
2023-03-08T09:02:35.616Z,70.67
2023-03-08T09:05:40.454Z,69.56
2023-03-08T09:08:43.902Z,71.70
2023-03-08T09:11:54.615Z,70.71
2023-03-08T09:14:58.605Z,68.62
2023-03-08T09:18:02.822Z,70.54
2023-03-08T09:21:06.170Z,71.80
2023-03-08T09:24:10.533Z,71.21
2023-03-08T09:27:13.515Z,70.92
2023-03-08T09:30:17.052Z,70.70
2023-03-08T09:33:21.272Z,71.53
2023-03-08T09:36:24.174Z,70.14
2023-03-08T09:39:27.411Z,70.17
2023-03-08T09:42:33.956Z,70.10
2023-03-08T09:45:37.832Z,69.38
2023-03-08T09:48:49.142Z,68.92
2023-03-08T09:51:58.871Z,68.62
2023-03-08T09:55:04.404Z,68.42
2023-03-08T09:58:17.738Z,67.77
2023-03-08T10:01:28.254Z,68.48
2023-03-08T10:04:47.632Z,67.58
2023-03-08T10:07:58.920Z,66.78
2023-03-08T10:11:04.216Z,67.23
2023-03-08T10:14:17.187Z,67.27
2023-03-08T10:17:23.446Z,66.64
2023-03-08T10:20:30.024Z,68.31
2023-03-08T10:23:33.721Z,70.66
2023-03-08T10:26:36.998Z,72.40
2023-03-08T10:29:39.775Z,72.67
2023-03-08T10:32:45.053Z,73.05
2023-03-08T10:36:02.250Z,72.70
2023-03-08T10:39:08.907Z,73.25
2023-03-08T10:42:17.258Z,73.13
2023-03-08T10:45:22.467Z,73.62
2023-03-08T10:48:25.330Z,73.44
2023-03-08T10:51:30.780Z,73.44
2023-03-08T10:54:33.924Z,73.26
2023-03-08T10:57:37.449Z,73.36
2023-03-08T11:00:42.234Z,73.25
2023-03-08T11:03:45.119Z,74.04
2023-03-08T11:06:49.632Z,74.02
2023-03-08T11:09:52.667Z,73.60
2023-03-08T11:13:03.319Z,73.96
2023-03-08T11:16:32.030Z,73.76
2023-03-08T11:19:50.507Z,73.16
2023-03-08T11:23:06.638Z,73.07
2023-03-08T11:26:19.420Z,70.95
2023-03-08T11:29:37.701Z,71.55
2023-03-08T11:32:52.694Z,71.45
2023-03-08T11:36:02.207Z,71.45
2023-03-08T11:39:20.269Z,71.19
2023-03-08T11:42:33.687Z,71.92
2023-03-08T11:45:44.267Z,71.63
2023-03-08T11:48:59.999Z,70.86
2023-03-08T11:52:09.708Z,70.99
2023-03-08T11:55:38.031Z,71.36
2023-03-08T11:58:48.852Z,70.44
2023-03-08T12:01:57.655Z,70.48
2023-03-08T12:05:08.913Z,71.09
2023-03-08T12:08:18.305Z,71.38
2023-03-08T12:11:27.889Z,71.84
2023-03-08T12:14:33.706Z,70.97
2023-03-08T12:17:40.198Z,70.05
2023-03-08T12:20:44.752Z,70.36
2023-03-08T12:23:56.116Z,70.15
2023-03-08T12:27:06.688Z,70.05
2023-03-08T12:30:20.744Z,70.24
2023-03-08T12:33:24.766Z,69.88
2023-03-08T12:36:39.606Z,69.84
2023-03-08T12:39:42.581Z,69.61
2023-03-08T12:42:46.829Z,69.29
2023-03-08T12:46:03.432Z,68.61
2023-03-08T12:49:19.757Z,68.95
2023-03-08T12:52:31.869Z,68.50
2023-03-08T12:55:34.958Z,67.37
2023-03-08T12:58:41.457Z,67.39
2023-03-08T13:01:46.708Z,67.43
2023-03-08T13:04:50.283Z,67.13
2023-03-08T13:08:23.437Z,66.33
2023-03-08T13:11:38.483Z,65.89
2023-03-08T13:14:45.185Z,65.58
2023-03-08T13:17:55.173Z,64.94
2023-03-08T13:21:22.788Z,65.17
2023-03-08T13:24:36.745Z,63.26
2023-03-08T13:27:51.171Z,62.67
2023-03-08T13:30:58.837Z,62.95
2023-03-08T13:34:01.735Z,62.72
2023-03-08T13:37:04.618Z,63.07
2023-03-08T13:40:18.088Z,64.04
2023-03-08T13:43:23.316Z,64.66
2023-03-08T13:46:27.659Z,65.12
2023-03-08T13:49:33.489Z,65.95
2023-03-08T13:52:39.609Z,65.76
2023-03-08T13:55:46.431Z,66.28
2023-03-08T13:58:50.660Z,67.28
2023-03-08T14:01:55.860Z,67.22
2023-03-08T14:05:00.392Z,67.89
2023-03-08T14:08:04.949Z,68.65
2023-03-08T14:11:14.425Z,69.03
2023-03-08T14:14:22.520Z,67.88
2023-03-08T14:17:29.692Z,67.71
2023-03-08T14:20:32.725Z,66.36
2023-03-08T14:23:40.505Z,67.20
2023-03-08T14:26:55.707Z,66.92
2023-03-08T14:30:03.767Z,68.37
2023-03-08T14:33:26.330Z,69.14
2023-03-08T14:36:34.745Z,69.09
2023-03-08T14:39:39.456Z,68.22
2023-03-08T14:42:45.408Z,69.04
2023-03-08T14:45:54.230Z,68.71
2023-03-08T14:49:01.780Z,68.62
2023-03-08T14:52:04.813Z,71.35
2023-03-08T14:55:22.434Z,72.95
2023-03-08T14:58:28.725Z,73.21
2023-03-08T15:01:34.076Z,72.67
2023-03-08T15:04:38.420Z,73.04
2023-03-08T15:07:41.361Z,72.59
2023-03-08T15:10:44.666Z,72.97
2023-03-08T15:13:47.603Z,73.60
2023-03-08T15:16:51.069Z,73.70
2023-03-08T15:19:55.276Z,72.90
2023-03-08T15:23:00.922Z,72.61
2023-03-08T15:26:06.488Z,71.88
2023-03-08T15:29:27.501Z,70.94
2023-03-08T15:32:30.419Z,70.67
2023-03-08T15:35:34.692Z,71.20
2023-03-08T15:38:37.546Z,70.66
2023-03-08T15:41:40.455Z,71.13
2023-03-08T15:44:43.259Z,71.20
2023-03-08T15:47:56.043Z,71.93
2023-03-08T15:51:00.540Z,72.00
2023-03-08T15:54:03.802Z,73.38
2023-03-08T15:57:06.837Z,72.93
2023-03-08T16:00:14.543Z,72.86
2023-03-08T16:03:30.819Z,73.68
2023-03-08T16:06:35.547Z,74.32
2023-03-08T16:09:38.381Z,74.83
2023-03-08T16:12:42.185Z,74.34
2023-03-08T16:15:45.127Z,74.25
2023-03-08T16:18:48.729Z,74.35
2023-03-08T16:21:53.088Z,75.42
2023-03-08T16:24:55.857Z,75.39
2023-03-08T16:27:58.615Z,75.95
2023-03-08T16:31:01.328Z,77.08
2023-03-08T16:34:04.871Z,77.94
2023-03-08T16:37:09.047Z,78.93
2023-03-08T16:40:14.315Z,79.19
2023-03-08T16:43:17.514Z,79.31
2023-03-08T16:46:22.667Z,79.60
2023-03-08T16:49:28.635Z,80.00
2023-03-08T16:52:32.785Z,80.48
2023-03-08T16:55:36.931Z,80.90
2023-03-08T16:58:39.775Z,80.32
2023-03-08T17:01:43.272Z,80.76
2023-03-08T17:04:46.297Z,80.49
2023-03-08T17:07:50.466Z,81.13
2023-03-08T17:10:53.191Z,81.18
2023-03-08T17:13:58.457Z,80.61
2023-03-08T17:17:01.371Z,80.16
2023-03-08T17:20:05.663Z,80.25
2023-03-08T17:23:11.414Z,80.18
2023-03-08T17:26:15.544Z,80.02
2023-03-08T17:29:18.558Z,79.99
2023-03-08T17:32:21.698Z,79.82
2023-03-08T17:35:24.648Z,79.59
2023-03-08T17:38:29.801Z,79.25
2023-03-08T17:41:33.061Z,79.45
2023-03-08T17:44:35.926Z,78.50
2023-03-08T17:47:39.012Z,78.47
2023-03-08T17:50:41.770Z,78.70
2023-03-08T17:53:46.919Z,78.26
2023-03-08T17:56:49.774Z,78.48
2023-03-08T17:59:53.758Z,77.71
2023-03-08T18:02:56.605Z,78.93
2023-03-08T18:05:59.404Z,78.17
2023-03-08T18:09:06.079Z,77.78
2023-03-08T18:12:09.834Z,77.59
2023-03-08T18:15:14.608Z,77.12
2023-03-08T18:18:17.465Z,76.15
2023-03-08T18:21:21.402Z,76.68
2023-03-08T18:24:27.502Z,75.90
2023-03-08T18:27:30.499Z,75.52
2023-03-08T18:30:33.408Z,76.19
2023-03-08T18:33:36.413Z,75.72
2023-03-08T18:36:40.563Z,76.16
2023-03-08T18:39:44.951Z,75.68
2023-03-08T18:42:48.053Z,76.17
2023-03-08T18:45:52.179Z,76.12
2023-03-08T18:48:55.225Z,76.20
2023-03-08T18:51:58.709Z,75.34
2023-03-08T18:55:03.010Z,75.91
2023-03-08T18:58:05.819Z,76.27
2023-03-08T19:01:12.399Z,77.05
2023-03-08T19:04:15.327Z,76.82
2023-03-08T19:07:18.146Z,76.30
2023-03-08T19:10:22.333Z,76.38
2023-03-08T19:13:25.718Z,75.77
2023-03-08T19:16:31.516Z,76.66
2023-03-08T19:19:34.587Z,78.75
2023-03-08T19:22:37.872Z,80.02
2023-03-08T19:25:55.988Z,81.40
2023-03-08T19:29:01.619Z,80.56
2023-03-08T19:32:06.377Z,81.22
2023-03-08T19:35:09.949Z,81.26
2023-03-08T19:38:12.778Z,82.20
2023-03-08T19:41:17.262Z,82.97
2023-03-08T19:44:20.548Z,83.02
2023-03-08T19:47:23.447Z,83.22
2023-03-08T19:50:26.226Z,84.53
2023-03-08T19:53:29.217Z,84.21
2023-03-08T19:56:33.925Z,85.79
2023-03-08T19:59:37.570Z,85.34
2023-03-08T20:02:42.306Z,86.70
2023-03-08T20:05:47.322Z,87.08
2023-03-08T20:08:50.525Z,87.48
2023-03-08T20:11:58.833Z,88.46
2023-03-08T20:15:01.928Z,88.44
2023-03-08T20:18:05.085Z,88.70
2023-03-08T20:21:07.991Z,89.55
2023-03-08T20:24:11.482Z,90.38
2023-03-08T20:27:15.700Z,90.81
2023-03-08T20:30:19.068Z,91.30
2023-03-08T20:33:21.989Z,91.95
2023-03-08T20:36:25.471Z,92.54
2023-03-08T20:39:28.361Z,93.60
2023-03-08T20:42:34.749Z,94.16
2023-03-08T20:45:40.073Z,95.26
2023-03-08T20:48:45.495Z,95.83
2023-03-08T20:51:48.925Z,95.73
2023-03-08T20:54:51.814Z,96.67
2023-03-08T20:57:55.953Z,97.20
2023-03-08T21:00:58.929Z,96.96
2023-03-08T21:04:01.786Z,97.56
2023-03-08T21:07:04.847Z,98.55
2023-03-08T21:10:08.282Z,98.23
2023-03-08T21:13:13.034Z,99.08
2023-03-08T21:16:18.333Z,99.53
2023-03-08T21:19:22.196Z,99.24
2023-03-08T21:22:25.096Z,99.25
2023-03-08T21:25:27.979Z,99.00
2023-03-08T21:28:32.090Z,99.67
2023-03-08T21:31:36.550Z,99.06
2023-03-08T21:34:40.535Z,99.44
2023-03-08T21:37:43.382Z,99.65
2023-03-08T21:40:46.165Z,99.88
2023-03-08T21:43:50.726Z,99.97
2023-03-08T21:46:55.352Z,100.00
2023-03-08T21:49:58.517Z,100.00
2023-03-08T21:53:01.269Z,100.00
2023-03-08T21:56:07.273Z,100.00
2023-03-08T21:59:11.422Z,100.00
2023-03-08T22:02:14.841Z,100.00
2023-03-08T22:05:18.569Z,100.00
2023-03-08T22:08:21.784Z,100.00
2023-03-08T22:11:25.760Z,100.00
2023-03-08T22:14:32.255Z,100.00
2023-03-08T22:17:36.020Z,100.00
2023-03-08T22:20:39.183Z,100.00
2023-03-08T22:23:42.228Z,100.00
2023-03-08T22:26:45.429Z,100.00
2023-03-08T22:29:49.466Z,100.00
2023-03-08T22:32:52.199Z,100.00
2023-03-08T22:35:56.286Z,100.00
2023-03-08T22:38:59.172Z,100.00
2023-03-08T22:42:02.153Z,100.00
2023-03-08T22:45:08.072Z,100.00
2023-03-08T22:48:11.673Z,98.59
2023-03-08T22:51:16.365Z,99.71
2023-03-08T22:54:21.510Z,98.99
2023-03-08T22:57:24.312Z,98.31
2023-03-08T23:00:28.535Z,97.55
2023-03-08T23:03:32.436Z,98.34
2023-03-08T23:06:35.575Z,97.94
2023-03-08T23:09:38.823Z,98.28
2023-03-08T23:12:41.779Z,98.29
2023-03-08T23:15:49.210Z,98.78
2023-03-08T23:18:53.849Z,99.04
2023-03-08T23:21:57.702Z,98.70
2023-03-08T23:25:00.471Z,98.88
2023-03-08T23:28:03.559Z,95.79
2023-03-08T23:31:11.816Z,95.34
2023-03-08T23:34:14.519Z,94.13
2023-03-08T23:37:17.207Z,93.88
2023-03-08T23:40:20.320Z,93.64
2023-03-08T23:43:23.366Z,92.05
2023-03-08T23:46:28.242Z,92.47
2023-03-08T23:49:31.222Z,92.27
2023-03-08T23:52:34.208Z,93.07
2023-03-08T23:55:38.501Z,92.99
2023-03-08T23:58:41.350Z,93.18
